QFA496 YMML-YSSY
Flight info
| Callsign | QFA496 |
|---|---|
| Flight time | 1h 6m |
| Altitude | 35000 |
| Route | DOSEL2/34 DOSEL Y59 RIVET |
| Aircraft | B738/M-SDE2E3FGHIRWXY/LB1 |
Departure
| Time | 2026-04-23 10:45 |
|---|---|
| Airport | Melbourne Airport (YMML) |
Arrival
| Time | 2026-04-23 11:51 |
|---|---|
| Airport | Sydney Kingsford Smith International Airport (YSSY) |
| Time | Latitude | Longitude | Altitude | Speed | Heading |
|---|---|---|---|---|---|
| 2026-04-23 09:52 | -37.66764 | 144.85018 | 396 ft | 0 kts | 262° |
| 2026-04-23 10:31 | -37.66763 | 144.85022 | 398 ft | 3 kts | 261° |
| 2026-04-23 10:31 | -37.66760 | 144.85049 | 395 ft | 3 kts | 265° |
| 2026-04-23 10:32 | -37.66761 | 144.85075 | 396 ft | 3 kts | 291° |
| 2026-04-23 10:32 | -37.66767 | 144.85088 | 392 ft | 3 kts | 0° |
| 2026-04-23 10:32 | -37.66765 | 144.85088 | 391 ft | 3 kts | 4° |
| 2026-04-23 10:32 | -37.66743 | 144.85088 | 397 ft | 3 kts | 356° |
| 2026-04-23 10:33 | -37.66721 | 144.85085 | 398 ft | 3 kts | 353° |
| 2026-04-23 10:33 | -37.66700 | 144.85081 | 399 ft | 3 kts | 352° |
| 2026-04-23 10:33 | -37.66685 | 144.85079 | 399 ft | 0 kts | 352° |
| 2026-04-23 10:39 | -37.66661 | 144.85074 | 396 ft | 6 kts | 352° |
| 2026-04-23 10:39 | -37.66599 | 144.85064 | 402 ft | 10 kts | 353° |
| 2026-04-23 10:39 | -37.66536 | 144.85042 | 404 ft | 9 kts | 321° |
| 2026-04-23 10:39 | -37.66527 | 144.84966 | 405 ft | 10 kts | 255° |
| 2026-04-23 10:40 | -37.66545 | 144.84869 | 405 ft | 13 kts | 258° |
| 2026-04-23 10:40 | -37.66591 | 144.84801 | 403 ft | 11 kts | 210° |
| 2026-04-23 10:40 | -37.66642 | 144.84708 | 401 ft | 15 kts | 259° |
| 2026-04-23 10:40 | -37.66658 | 144.84568 | 399 ft | 16 kts | 262° |
| 2026-04-23 10:41 | -37.66674 | 144.84427 | 397 ft | 16 kts | 261° |
| 2026-04-23 10:41 | -37.66690 | 144.84292 | 394 ft | 15 kts | 262° |
| 2026-04-23 10:41 | -37.66717 | 144.84202 | 392 ft | 11 kts | 221° |
| 2026-04-23 10:41 | -37.66812 | 144.84196 | 390 ft | 17 kts | 172° |
| 2026-04-23 10:42 | -37.66938 | 144.84220 | 386 ft | 19 kts | 171° |
| 2026-04-23 10:42 | -37.67066 | 144.84243 | 384 ft | 18 kts | 172° |
| 2026-04-23 10:42 | -37.67191 | 144.84267 | 381 ft | 18 kts | 172° |
| 2026-04-23 10:42 | -37.67313 | 144.84289 | 378 ft | 18 kts | 172° |
| 2026-04-23 10:43 | -37.67432 | 144.84312 | 376 ft | 17 kts | 171° |
| 2026-04-23 10:43 | -37.67549 | 144.84334 | 373 ft | 17 kts | 172° |
| 2026-04-23 10:43 | -37.67670 | 144.84357 | 369 ft | 18 kts | 171° |
| 2026-04-23 10:43 | -37.67773 | 144.84363 | 365 ft | 14 kts | 192° |
| 2026-04-23 10:44 | -37.67850 | 144.84279 | 362 ft | 16 kts | 247° |
| 2026-04-23 10:44 | -37.67870 | 144.84141 | 361 ft | 14 kts | 262° |
| 2026-04-23 10:44 | -37.67863 | 144.84018 | 359 ft | 11 kts | 291° |
| 2026-04-23 10:44 | -37.67811 | 144.83958 | 361 ft | 13 kts | 341° |
| 2026-04-23 10:45 | -37.67602 | 144.83917 | 367 ft | 61 kts | 352° |
| 2026-04-23 10:45 | -37.66940 | 144.83794 | 387 ft | 126 kts | 351° |
| 2026-04-23 10:45 | -37.65914 | 144.83603 | 542 ft | 168 kts | 352° |
| 2026-04-23 10:45 | -37.64731 | 144.83399 | 1302 ft | 172 kts | 353° |
| 2026-04-23 10:46 | -37.63539 | 144.83193 | 2146 ft | 173 kts | 353° |
| 2026-04-23 10:46 | -37.62311 | 144.82998 | 2822 ft | 185 kts | 354° |
| 2026-04-23 10:46 | -37.60986 | 144.82816 | 3431 ft | 200 kts | 357° |
| 2026-04-23 10:46 | -37.59576 | 144.82910 | 4089 ft | 206 kts | 11° |
| 2026-04-23 10:47 | -37.58151 | 144.83347 | 4607 ft | 215 kts | 18° |
| 2026-04-23 10:47 | -37.56682 | 144.83933 | 5064 ft | 228 kts | 21° |
| 2026-04-23 10:47 | -37.55109 | 144.84643 | 5322 ft | 255 kts | 22° |
| 2026-04-23 10:47 | -37.53373 | 144.85553 | 5523 ft | 286 kts | 25° |
| 2026-04-23 10:48 | -37.51504 | 144.86620 | 6097 ft | 299 kts | 26° |
| 2026-04-23 10:48 | -37.49624 | 144.87774 | 7026 ft | 300 kts | 27° |
| 2026-04-23 10:48 | -37.47757 | 144.88963 | 7918 ft | 302 kts | 28° |
| 2026-04-23 10:48 | -37.45901 | 144.90178 | 8682 ft | 308 kts | 28° |
| 2026-04-23 10:49 | -37.44012 | 144.91527 | 9372 ft | 317 kts | 34° |
| 2026-04-23 10:49 | -37.42317 | 144.93354 | 10033 ft | 326 kts | 47° |
| 2026-04-23 10:49 | -37.40875 | 144.95604 | 10723 ft | 332 kts | 53° |
| 2026-04-23 10:49 | -37.39535 | 144.97959 | 11616 ft | 330 kts | 54° |
| 2026-04-23 10:50 | -37.38202 | 145.00347 | 12158 ft | 343 kts | 55° |
| 2026-04-23 10:50 | -37.36806 | 145.02900 | 12419 ft | 361 kts | 55° |
| 2026-04-23 10:50 | -37.35385 | 145.05488 | 13262 ft | 359 kts | 54° |
| 2026-04-23 10:50 | -37.33943 | 145.08084 | 13948 ft | 366 kts | 54° |
| 2026-04-23 10:51 | -37.32446 | 145.10755 | 14266 ft | 381 kts | 54° |
| 2026-04-23 10:51 | -37.30907 | 145.13507 | 14802 ft | 386 kts | 54° |
| 2026-04-23 10:51 | -37.29381 | 145.16247 | 15680 ft | 381 kts | 54° |
| 2026-04-23 10:51 | -37.27868 | 145.18966 | 16488 ft | 380 kts | 54° |
| 2026-04-23 10:52 | -37.26327 | 145.21731 | 16834 ft | 393 kts | 54° |
| 2026-04-23 10:52 | -37.24723 | 145.24587 | 17122 ft | 405 kts | 54° |
| 2026-04-23 10:52 | -37.23093 | 145.27479 | 17785 ft | 406 kts | 54° |
| 2026-04-23 10:52 | -37.21470 | 145.30367 | 18613 ft | 403 kts | 54° |
| 2026-04-23 10:53 | -37.19860 | 145.33234 | 19241 ft | 404 kts | 54° |
| 2026-04-23 10:53 | -37.18246 | 145.36177 | 19549 ft | 414 kts | 55° |
| 2026-04-23 10:53 | -37.16624 | 145.39185 | 19986 ft | 419 kts | 55° |
| 2026-04-23 10:53 | -37.14964 | 145.42205 | 20524 ft | 421 kts | 54° |
| 2026-04-23 10:54 | -37.13271 | 145.45194 | 21061 ft | 423 kts | 53° |
| 2026-04-23 10:54 | -37.11548 | 145.48194 | 21572 ft | 425 kts | 53° |
| 2026-04-23 10:54 | -37.09805 | 145.51213 | 22044 ft | 428 kts | 53° |
| 2026-04-23 10:54 | -37.08055 | 145.54241 | 22524 ft | 431 kts | 53° |
| 2026-04-23 10:55 | -37.06295 | 145.57289 | 23002 ft | 434 kts | 53° |
| 2026-04-23 10:55 | -37.04524 | 145.60358 | 23458 ft | 436 kts | 53° |
| 2026-04-23 10:55 | -37.02740 | 145.63452 | 23931 ft | 439 kts | 53° |
| 2026-04-23 10:55 | -37.00950 | 145.66554 | 24323 ft | 441 kts | 53° |
| 2026-04-23 10:56 | -36.99153 | 145.69670 | 24705 ft | 443 kts | 53° |
| 2026-04-23 10:56 | -36.97340 | 145.72809 | 25080 ft | 445 kts | 53° |
| 2026-04-23 10:56 | -36.95526 | 145.75948 | 25440 ft | 448 kts | 53° |
| 2026-04-23 10:56 | -36.93692 | 145.79118 | 25787 ft | 450 kts | 53° |
| 2026-04-23 10:57 | -36.91852 | 145.82296 | 26134 ft | 453 kts | 53° |
| 2026-04-23 10:57 | -36.89995 | 145.85498 | 26460 ft | 455 kts | 53° |
| 2026-04-23 10:57 | -36.88133 | 145.88709 | 26783 ft | 458 kts | 53° |
| 2026-04-23 10:57 | -36.86262 | 145.91929 | 27094 ft | 460 kts | 53° |
| 2026-04-23 10:58 | -36.84372 | 145.95181 | 27407 ft | 463 kts | 53° |
| 2026-04-23 10:58 | -36.82479 | 145.98435 | 27697 ft | 465 kts | 53° |
| 2026-04-23 10:58 | -36.80595 | 146.01668 | 27997 ft | 468 kts | 53° |
| 2026-04-23 10:58 | -36.78676 | 146.04961 | 28277 ft | 470 kts | 53° |
| 2026-04-23 10:59 | -36.76751 | 146.08259 | 28569 ft | 472 kts | 53° |
| 2026-04-23 10:59 | -36.74813 | 146.11576 | 28839 ft | 475 kts | 53° |
| 2026-04-23 10:59 | -36.72863 | 146.14911 | 29110 ft | 477 kts | 53° |
| 2026-04-23 10:59 | -36.70905 | 146.18257 | 29466 ft | 477 kts | 53° |
| 2026-04-23 11:00 | -36.68925 | 146.21636 | 29914 ft | 475 kts | 53° |
| 2026-04-23 11:00 | -36.67003 | 146.24914 | 30319 ft | 475 kts | 53° |
| 2026-04-23 11:00 | -36.65057 | 146.28229 | 30640 ft | 475 kts | 53° |
| 2026-04-23 11:00 | -36.63107 | 146.31547 | 30928 ft | 475 kts | 53° |
| 2026-04-23 11:01 | -36.61147 | 146.34877 | 31259 ft | 475 kts | 53° |
| 2026-04-23 11:01 | -36.59202 | 146.38180 | 31581 ft | 474 kts | 53° |
| 2026-04-23 11:01 | -36.57885 | 146.40415 | 31785 ft | 474 kts | 53° |
| 2026-04-23 11:01 | -36.55303 | 146.44794 | 32162 ft | 474 kts | 53° |
| 2026-04-23 11:02 | -36.53356 | 146.48093 | 32461 ft | 474 kts | 53° |
| 2026-04-23 11:02 | -36.51379 | 146.51438 | 32776 ft | 473 kts | 52° |
| 2026-04-23 11:02 | -36.49455 | 146.54691 | 33079 ft | 473 kts | 52° |
| 2026-04-23 11:02 | -36.47509 | 146.57977 | 33360 ft | 473 kts | 52° |
| 2026-04-23 11:03 | -36.45560 | 146.61264 | 33617 ft | 473 kts | 52° |
| 2026-04-23 11:03 | -36.43612 | 146.64548 | 33914 ft | 473 kts | 52° |
| 2026-04-23 11:03 | -36.41660 | 146.67834 | 34238 ft | 472 kts | 52° |
| 2026-04-23 11:03 | -36.39711 | 146.71113 | 34534 ft | 471 kts | 52° |
| 2026-04-23 11:04 | -36.37768 | 146.74379 | 34726 ft | 471 kts | 53° |
| 2026-04-23 11:04 | -36.35813 | 146.77662 | 34933 ft | 472 kts | 53° |
| 2026-04-23 11:04 | -36.33865 | 146.80930 | 35151 ft | 472 kts | 53° |
| 2026-04-23 11:04 | -36.31909 | 146.84207 | 35374 ft | 472 kts | 53° |
| 2026-04-23 11:05 | -36.27982 | 146.90778 | 35434 ft | 477 kts | 53° |
| 2026-04-23 11:05 | -36.24032 | 146.97377 | 35422 ft | 474 kts | 53° |
| 2026-04-23 11:06 | -36.18176 | 147.07137 | 35436 ft | 469 kts | 53° |
| 2026-04-23 11:07 | -36.14275 | 147.13620 | 35437 ft | 469 kts | 53° |
| 2026-04-23 11:07 | -36.10381 | 147.20082 | 35438 ft | 469 kts | 53° |
| 2026-04-23 11:08 | -36.06485 | 147.26537 | 35439 ft | 469 kts | 53° |
| 2026-04-23 11:08 | -36.02574 | 147.33007 | 35449 ft | 470 kts | 53° |
| 2026-04-23 11:09 | -35.98649 | 147.39487 | 35444 ft | 472 kts | 53° |
| 2026-04-23 11:09 | -35.94710 | 147.45978 | 35446 ft | 473 kts | 53° |
| 2026-04-23 11:10 | -35.90757 | 147.52481 | 35448 ft | 474 kts | 54° |
| 2026-04-23 11:10 | -35.86792 | 147.58992 | 35450 ft | 475 kts | 54° |
| 2026-04-23 11:11 | -35.83460 | 147.64454 | 35457 ft | 475 kts | 54° |
| 2026-04-23 11:11 | -35.79479 | 147.70960 | 35458 ft | 476 kts | 54° |
| 2026-04-23 11:12 | -35.74846 | 147.78516 | 35458 ft | 475 kts | 54° |
| 2026-04-23 11:12 | -35.71509 | 147.83952 | 35464 ft | 475 kts | 54° |
| 2026-04-23 11:13 | -35.67557 | 147.90378 | 35470 ft | 474 kts | 54° |
| 2026-04-23 11:13 | -35.63577 | 147.96839 | 35466 ft | 474 kts | 54° |
| 2026-04-23 11:14 | -35.59569 | 148.03334 | 35472 ft | 473 kts | 54° |
| 2026-04-23 11:14 | -35.55616 | 148.09729 | 35480 ft | 472 kts | 54° |
| 2026-04-23 11:15 | -35.51642 | 148.16144 | 35483 ft | 472 kts | 54° |
| 2026-04-23 11:15 | -35.47666 | 148.22552 | 35484 ft | 472 kts | 54° |
| 2026-04-23 11:16 | -35.43691 | 148.28948 | 35487 ft | 472 kts | 54° |
| 2026-04-23 11:16 | -35.39701 | 148.35344 | 35490 ft | 472 kts | 54° |
| 2026-04-23 11:17 | -35.35701 | 148.41736 | 35494 ft | 473 kts | 54° |
| 2026-04-23 11:17 | -35.31697 | 148.48127 | 35492 ft | 473 kts | 54° |
| 2026-04-23 11:18 | -35.27680 | 148.54529 | 35496 ft | 474 kts | 54° |
| 2026-04-23 11:18 | -35.23664 | 148.60918 | 35492 ft | 475 kts | 54° |
| 2026-04-23 11:19 | -35.19629 | 148.67327 | 35495 ft | 475 kts | 54° |
| 2026-04-23 11:19 | -35.15597 | 148.73720 | 35494 ft | 476 kts | 54° |
| 2026-04-23 11:20 | -35.11545 | 148.80131 | 35498 ft | 476 kts | 54° |
| 2026-04-23 11:20 | -35.07495 | 148.86527 | 35497 ft | 477 kts | 54° |
| 2026-04-23 11:21 | -35.03433 | 148.92932 | 35494 ft | 477 kts | 54° |
| 2026-04-23 11:21 | -34.99368 | 148.99329 | 35493 ft | 477 kts | 54° |
| 2026-04-23 11:22 | -34.95318 | 149.05692 | 35109 ft | 483 kts | 57° |
| 2026-04-23 11:22 | -34.93259 | 149.08925 | 34547 ft | 481 kts | 57° |
| 2026-04-23 11:22 | -34.91194 | 149.12159 | 33833 ft | 476 kts | 57° |
| 2026-04-23 11:22 | -34.89172 | 149.15322 | 33180 ft | 471 kts | 56° |
| 2026-04-23 11:23 | -34.87170 | 149.18452 | 32520 ft | 466 kts | 56° |
| 2026-04-23 11:23 | -34.85188 | 149.21548 | 32067 ft | 457 kts | 56° |
| 2026-04-23 11:23 | -34.83275 | 149.24535 | 31611 ft | 450 kts | 56° |
| 2026-04-23 11:23 | -34.81361 | 149.27525 | 31175 ft | 446 kts | 56° |
| 2026-04-23 11:24 | -34.79461 | 149.30491 | 30743 ft | 443 kts | 55° |
| 2026-04-23 11:24 | -34.77577 | 149.33430 | 30269 ft | 439 kts | 55° |
| 2026-04-23 11:24 | -34.75681 | 149.36381 | 29783 ft | 434 kts | 54° |
| 2026-04-23 11:24 | -34.73879 | 149.39286 | 29344 ft | 427 kts | 59° |
| 2026-04-23 11:25 | -34.72430 | 149.42327 | 29078 ft | 417 kts | 64° |
| 2026-04-23 11:25 | -34.71075 | 149.45472 | 28814 ft | 423 kts | 65° |
| 2026-04-23 11:25 | -34.69731 | 149.48637 | 28391 ft | 420 kts | 65° |
| 2026-04-23 11:25 | -34.68397 | 149.51765 | 27951 ft | 415 kts | 64° |
| 2026-04-23 11:26 | -34.67067 | 149.54858 | 27498 ft | 412 kts | 64° |
| 2026-04-23 11:26 | -34.65736 | 149.57927 | 27052 ft | 408 kts | 64° |
| 2026-04-23 11:26 | -34.64412 | 149.60964 | 26620 ft | 405 kts | 64° |
| 2026-04-23 11:26 | -34.63102 | 149.63960 | 26195 ft | 401 kts | 64° |
| 2026-04-23 11:27 | -34.61793 | 149.66946 | 25770 ft | 398 kts | 64° |
| 2026-04-23 11:27 | -34.60498 | 149.69898 | 25343 ft | 395 kts | 63° |
| 2026-04-23 11:27 | -34.59208 | 149.72837 | 24921 ft | 393 kts | 63° |
| 2026-04-23 11:27 | -34.57925 | 149.75759 | 24501 ft | 390 kts | 63° |
| 2026-04-23 11:28 | -34.56653 | 149.78650 | 24076 ft | 388 kts | 63° |
| 2026-04-23 11:28 | -34.55383 | 149.81538 | 23583 ft | 386 kts | 63° |
| 2026-04-23 11:28 | -34.54119 | 149.84410 | 23132 ft | 383 kts | 63° |
| 2026-04-23 11:28 | -34.52871 | 149.87243 | 22702 ft | 380 kts | 63° |
| 2026-04-23 11:29 | -34.51628 | 149.90061 | 22284 ft | 377 kts | 63° |
| 2026-04-23 11:29 | -34.50398 | 149.92847 | 21860 ft | 374 kts | 63° |
| 2026-04-23 11:29 | -34.49174 | 149.95616 | 21495 ft | 370 kts | 63° |
| 2026-04-23 11:29 | -34.47964 | 149.98350 | 21095 ft | 367 kts | 64° |
| 2026-04-23 11:30 | -34.46757 | 150.01078 | 20699 ft | 366 kts | 64° |
| 2026-04-23 11:30 | -34.45552 | 150.03798 | 20295 ft | 366 kts | 64° |
| 2026-04-23 11:30 | -34.44346 | 150.06523 | 19894 ft | 369 kts | 64° |
| 2026-04-23 11:30 | -34.43120 | 150.09290 | 19494 ft | 377 kts | 64° |
| 2026-04-23 11:31 | -34.41879 | 150.12088 | 19062 ft | 377 kts | 64° |
| 2026-04-23 11:31 | -34.40639 | 150.14879 | 18619 ft | 374 kts | 64° |
| 2026-04-23 11:31 | -34.39412 | 150.17640 | 18161 ft | 372 kts | 64° |
| 2026-04-23 11:31 | -34.38194 | 150.20376 | 17724 ft | 368 kts | 64° |
| 2026-04-23 11:32 | -34.36983 | 150.23095 | 17304 ft | 365 kts | 64° |
| 2026-04-23 11:32 | -34.35782 | 150.25792 | 16899 ft | 361 kts | 64° |
| 2026-04-23 11:32 | -34.34595 | 150.28456 | 16499 ft | 358 kts | 64° |
| 2026-04-23 11:32 | -34.33434 | 150.31058 | 16107 ft | 354 kts | 64° |
| 2026-04-23 11:33 | -34.32272 | 150.33662 | 15718 ft | 351 kts | 64° |
| 2026-04-23 11:33 | -34.31115 | 150.36254 | 15324 ft | 348 kts | 64° |
| 2026-04-23 11:33 | -34.29970 | 150.38818 | 14944 ft | 345 kts | 64° |
| 2026-04-23 11:33 | -34.28834 | 150.41356 | 14554 ft | 342 kts | 64° |
| 2026-04-23 11:34 | -34.27709 | 150.43867 | 14165 ft | 339 kts | 64° |
| 2026-04-23 11:34 | -34.26522 | 150.46519 | 13737 ft | 336 kts | 64° |
| 2026-04-23 11:34 | -34.25480 | 150.48847 | 13363 ft | 333 kts | 64° |
| 2026-04-23 11:34 | -34.24377 | 150.51309 | 12981 ft | 330 kts | 64° |
| 2026-04-23 11:35 | -34.23288 | 150.53739 | 12601 ft | 327 kts | 64° |
| 2026-04-23 11:35 | -34.22209 | 150.56148 | 12226 ft | 325 kts | 64° |
| 2026-04-23 11:35 | -34.21133 | 150.58547 | 11851 ft | 323 kts | 64° |
| 2026-04-23 11:35 | -34.20077 | 150.60901 | 11472 ft | 316 kts | 64° |
| 2026-04-23 11:36 | -34.19042 | 150.63200 | 11207 ft | 304 kts | 64° |
| 2026-04-23 11:36 | -34.18052 | 150.65399 | 10959 ft | 293 kts | 64° |
| 2026-04-23 11:36 | -34.17079 | 150.67562 | 10599 ft | 289 kts | 64° |
| 2026-04-23 11:36 | -34.16134 | 150.69661 | 10393 ft | 279 kts | 64° |
| 2026-04-23 11:37 | -34.15216 | 150.71702 | 10000 ft | 277 kts | 64° |
| 2026-04-23 11:37 | -34.14297 | 150.73748 | 9470 ft | 279 kts | 64° |
| 2026-04-23 11:37 | -34.13374 | 150.75800 | 9024 ft | 278 kts | 63° |
| 2026-04-23 11:37 | -34.12448 | 150.77853 | 8686 ft | 276 kts | 63° |
| 2026-04-23 11:38 | -34.11536 | 150.79875 | 8438 ft | 272 kts | 63° |
| 2026-04-23 11:38 | -34.10642 | 150.81853 | 8181 ft | 265 kts | 63° |
| 2026-04-23 11:38 | -34.09762 | 150.83803 | 7821 ft | 263 kts | 63° |
| 2026-04-23 11:38 | -34.08897 | 150.85725 | 7600 ft | 259 kts | 63° |
| 2026-04-23 11:39 | -34.08040 | 150.87629 | 7356 ft | 258 kts | 63° |
| 2026-04-23 11:39 | -34.07185 | 150.89530 | 7117 ft | 257 kts | 63° |
| 2026-04-23 11:39 | -34.06331 | 150.91427 | 6883 ft | 257 kts | 63° |
| 2026-04-23 11:39 | -34.05479 | 150.93318 | 6628 ft | 257 kts | 63° |
| 2026-04-23 11:40 | -34.04629 | 150.95205 | 6370 ft | 256 kts | 63° |
| 2026-04-23 11:40 | -34.03779 | 150.97088 | 6117 ft | 255 kts | 63° |
| 2026-04-23 11:40 | -34.02810 | 150.98864 | 6009 ft | 254 kts | 45° |
| 2026-04-23 11:40 | -34.01294 | 150.99909 | 6003 ft | 255 kts | 15° |
| 2026-04-23 11:41 | -33.99518 | 150.99943 | 6021 ft | 261 kts | 352° |
| 2026-04-23 11:41 | -33.97724 | 150.99471 | 6004 ft | 265 kts | 348° |
| 2026-04-23 11:41 | -33.95922 | 150.98937 | 5811 ft | 270 kts | 348° |
| 2026-04-23 11:41 | -33.94094 | 150.98388 | 5560 ft | 269 kts | 348° |
| 2026-04-23 11:42 | -33.92289 | 150.97841 | 5319 ft | 266 kts | 348° |
| 2026-04-23 11:42 | -33.90535 | 150.97306 | 5250 ft | 256 kts | 348° |
| 2026-04-23 11:42 | -33.88830 | 150.96783 | 5069 ft | 250 kts | 348° |
| 2026-04-23 11:42 | -33.87183 | 150.96277 | 4944 ft | 243 kts | 348° |
| 2026-04-23 11:43 | -33.85574 | 150.95779 | 4922 ft | 234 kts | 348° |
| 2026-04-23 11:43 | -33.83996 | 150.95288 | 4901 ft | 237 kts | 348° |
| 2026-04-23 11:43 | -33.82352 | 150.94780 | 4882 ft | 253 kts | 348° |
| 2026-04-23 11:43 | -33.80624 | 150.94247 | 4834 ft | 254 kts | 348° |
| 2026-04-23 11:44 | -33.78924 | 150.93724 | 4524 ft | 255 kts | 349° |
| 2026-04-23 11:44 | -33.77163 | 150.93705 | 4131 ft | 253 kts | 18° |
| 2026-04-23 11:44 | -33.75687 | 150.94727 | 3945 ft | 242 kts | 49° |
| 2026-04-23 11:44 | -33.74840 | 150.96418 | 3782 ft | 231 kts | 70° |
| 2026-04-23 11:45 | -33.74304 | 150.98166 | 3687 ft | 217 kts | 72° |
| 2026-04-23 11:45 | -33.73815 | 150.99825 | 3591 ft | 203 kts | 72° |
| 2026-04-23 11:45 | -33.73368 | 151.01384 | 3414 ft | 194 kts | 78° |
| 2026-04-23 11:45 | -33.73464 | 151.02941 | 3137 ft | 187 kts | 115° |
| 2026-04-23 11:46 | -33.74128 | 151.04314 | 3080 ft | 192 kts | 122° |
| 2026-04-23 11:46 | -33.74837 | 151.05643 | 3035 ft | 185 kts | 122° |
| 2026-04-23 11:46 | -33.75521 | 151.06912 | 2990 ft | 177 kts | 122° |
| 2026-04-23 11:46 | -33.76184 | 151.08139 | 2992 ft | 174 kts | 123° |
| 2026-04-23 11:47 | -33.76842 | 151.09364 | 3002 ft | 175 kts | 122° |
| 2026-04-23 11:47 | -33.77502 | 151.10600 | 2993 ft | 176 kts | 122° |
| 2026-04-23 11:47 | -33.78165 | 151.11837 | 2965 ft | 176 kts | 122° |
| 2026-04-23 11:47 | -33.78936 | 151.12984 | 2800 ft | 179 kts | 146° |
| 2026-04-23 11:48 | -33.80088 | 151.13510 | 2606 ft | 179 kts | 161° |
| 2026-04-23 11:48 | -33.81253 | 151.13986 | 2376 ft | 179 kts | 160° |
| 2026-04-23 11:48 | -33.82437 | 151.14399 | 2130 ft | 176 kts | 164° |
| 2026-04-23 11:48 | -33.83628 | 151.14732 | 1876 ft | 173 kts | 166° |
| 2026-04-23 11:49 | -33.84813 | 151.15046 | 1644 ft | 169 kts | 166° |
| 2026-04-23 11:49 | -33.85931 | 151.15343 | 1347 ft | 162 kts | 166° |
| 2026-04-23 11:49 | -33.86775 | 151.15553 | 1110 ft | 155 kts | 166° |
| 2026-04-23 11:49 | -33.87790 | 151.15813 | 896 ft | 147 kts | 166° |
| 2026-04-23 11:50 | -33.88763 | 151.16071 | 808 ft | 138 kts | 166° |
| 2026-04-23 11:50 | -33.89722 | 151.16320 | 676 ft | 144 kts | 166° |
| 2026-04-23 11:50 | -33.90701 | 151.16576 | 486 ft | 143 kts | 165° |
| 2026-04-23 11:50 | -33.91658 | 151.16825 | 346 ft | 141 kts | 167° |
| 2026-04-23 11:51 | -33.92610 | 151.17074 | 149 ft | 137 kts | 167° |
| 2026-04-23 11:51 | -33.93517 | 151.17308 | 27 ft | 125 kts | 167° |
| 2026-04-23 11:51 | -33.94213 | 151.17489 | 29 ft | 58 kts | 166° |
| 2026-04-23 11:51 | -33.94448 | 151.17646 | 29 ft | 26 kts | 141° |
| 2026-04-23 11:52 | -33.94515 | 151.17740 | 29 ft | 7 kts | 100° |
| 2026-04-23 11:52 | -33.94497 | 151.17782 | 29 ft | 6 kts | 21° |
| 2026-04-23 11:52 | -33.94455 | 151.17774 | 29 ft | 6 kts | 345° |
| 2026-04-23 11:52 | -33.94411 | 151.17760 | 29 ft | 10 kts | 346° |
| 2026-04-23 11:53 | -33.94343 | 151.17739 | 29 ft | 18 kts | 346° |
| 2026-04-23 11:53 | -33.94221 | 151.17701 | 28 ft | 19 kts | 345° |
| 2026-04-23 11:53 | -33.94096 | 151.17663 | 27 ft | 18 kts | 346° |
| 2026-04-23 11:53 | -33.93978 | 151.17632 | 28 ft | 17 kts | 348° |
| 2026-04-23 11:54 | -33.93861 | 151.17601 | 28 ft | 17 kts | 348° |
| 2026-04-23 11:54 | -33.93749 | 151.17573 | 28 ft | 16 kts | 348° |
| 2026-04-23 11:54 | -33.93643 | 151.17546 | 28 ft | 15 kts | 348° |
| 2026-04-23 11:54 | -33.93539 | 151.17519 | 28 ft | 15 kts | 348° |
| 2026-04-23 11:55 | -33.93441 | 151.17505 | 29 ft | 14 kts | 7° |
| 2026-04-23 11:55 | -33.93346 | 151.17495 | 29 ft | 14 kts | 348° |
| 2026-04-23 11:55 | -33.93256 | 151.17472 | 29 ft | 13 kts | 348° |
| 2026-04-23 11:55 | -33.93168 | 151.17448 | 29 ft | 13 kts | 347° |
| 2026-04-23 11:56 | -33.93091 | 151.17445 | 29 ft | 10 kts | 30° |
| 2026-04-23 11:56 | -33.93058 | 151.17518 | 29 ft | 11 kts | 56° |
| 2026-04-23 11:56 | -33.93011 | 151.17604 | 29 ft | 14 kts | 93° |
| 2026-04-23 11:56 | -33.93036 | 151.17712 | 29 ft | 13 kts | 118° |
| 2026-04-23 11:57 | -33.93064 | 151.17811 | 29 ft | 11 kts | 100° |
| 2026-04-23 11:57 | -33.93091 | 151.17868 | 29 ft | 7 kts | 172° |
| 2026-04-23 11:57 | -33.93130 | 151.17861 | 29 ft | 3 kts | 192° |
| 2026-04-23 11:57 | -33.93140 | 151.17859 | 29 ft | 1 kts | 189° |
| 2026-04-23 11:58 | -33.93147 | 151.17857 | 29 ft | 1 kts | 190° |